KAYS/AYS METAR and TAF weather

Enter ICAO airport designator
Station Type Date Time Source
KAYS METAR 2020/09/21 09:35 UTC NOAA

KAYS 210935Z AUTO 06009G14KT 10SM CLR 17/09 A3021 RMK AO2 T01650087 TSNO


Station Type Date Time Source
KAYS Decoded METAR 2020/09/21 09:35 UTC NOAA

Waycross / Ware County, Ga, GA, United States (KAYS) 31-15N 082-24W 46M
Sep 21, 2020 - 05:35 AM EDT / 2020.09.21 0935 UTC
Wind: from the ENE (060 degrees) at 10 MPH (9 KT) gusting to 16 MPH (14 KT):0
Visibility: 10 mile(s):0
Sky conditions: clear
Temperature: 61.7 F (16.5 C)
Dew Point: 47.7 F (8.7 C)
Relative Humidity: 59%
Pressure (altimeter): 30.21 in. Hg (1023 hPa)
ob: KAYS 210935Z AUTO 06009G14KT 10SM CLR 17/09 A3021 RMK AO2 T01650087 TSNO
cycle: 9

Station Type Date Time Source
KAYS TAF UTC NOAA

Error!

Example: see airport list